sensor_id;sensor_type;location;lat;lon;timestamp;pressure;altitude;pressure_sealevel;temperature;humidity
82006;BME280;71529;47.484;19.064;2024-03-02T00:02:05;99836.34;;;12.03;70.98
82006;BME280;71529;47.484;19.064;2024-03-02T00:04:35;99832.63;;;11.96;73.69
82006;BME280;71529;47.484;19.064;2024-03-02T00:07:07;99827.34;;;12.04;71.64
82006;BME280;71529;47.484;19.064;2024-03-02T00:09:37;99826.22;;;11.89;73.48
82006;BME280;71529;47.484;19.064;2024-03-02T00:12:06;99821.13;;;12.03;71.84
82006;BME280;71529;47.484;19.064;2024-03-02T00:14:35;99819.72;;;11.91;74.02
82006;BME280;71529;47.484;19.064;2024-03-02T00:17:04;99814.81;;;11.87;72.85
82006;BME280;71529;47.484;19.064;2024-03-02T00:19:38;99811.19;;;11.96;72.05
82006;BME280;71529;47.484;19.064;2024-03-02T00:22:11;99810.31;;;11.87;73.17
82006;BME280;71529;47.484;19.064;2024-03-02T00:24:41;99811.16;;;11.88;73.44
82006;BME280;71529;47.484;19.064;2024-03-02T00:27:13;99804.59;;;11.82;72.31
82006;BME280;71529;47.484;19.064;2024-03-02T00:29:43;99814.59;;;11.80;71.79
82006;BME280;71529;47.484;19.064;2024-03-02T00:32:13;99811.78;;;11.82;72.53
82006;BME280;71529;47.484;19.064;2024-03-02T00:34:45;99821.34;;;11.84;70.82
82006;BME280;71529;47.484;19.064;2024-03-02T00:37:16;99826.47;;;11.78;71.07
82006;BME280;71529;47.484;19.064;2024-03-02T00:39:49;99832.66;;;11.78;74.19
82006;BME280;71529;47.484;19.064;2024-03-02T00:42:18;99832.66;;;11.78;71.37
82006;BME280;71529;47.484;19.064;2024-03-02T00:44:47;99820.91;;;11.71;71.02
82006;BME280;71529;47.484;19.064;2024-03-02T00:47:16;99823.56;;;11.71;70.34
82006;BME280;71529;47.484;19.064;2024-03-02T00:49:47;99821.38;;;11.67;70.45
82006;BME280;71529;47.484;19.064;2024-03-02T00:52:18;99831.06;;;11.68;70.48
82006;BME280;71529;47.484;19.064;2024-03-02T00:54:47;99827.13;;;11.62;71.21
82006;BME280;71529;47.484;19.064;2024-03-02T00:57:16;99828.09;;;11.53;71.54
82006;BME280;71529;47.484;19.064;2024-03-02T00:59:45;99828.09;;;11.53;71.86
82006;BME280;71529;47.484;19.064;2024-03-02T01:02:14;99824.56;;;11.53;74.17
82006;BME280;71529;47.484;19.064;2024-03-02T01:04:46;99827.25;;;11.53;71.42
82006;BME280;71529;47.484;19.064;2024-03-02T01:07:15;99827.16;;;11.45;71.18
82006;BME280;71529;47.484;19.064;2024-03-02T01:09:46;99822.13;;;11.42;71.19
82006;BME280;71529;47.484;19.064;2024-03-02T01:12:15;99825.66;;;11.42;72.78
82006;BME280;71529;47.484;19.064;2024-03-02T01:14:44;99821.16;;;11.43;71.55
82006;BME280;71529;47.484;19.064;2024-03-02T01:17:13;99821.00;;;11.44;72.74
82006;BME280;71529;47.484;19.064;2024-03-02T01:19:43;99815.47;;;11.46;73.04
82006;BME280;71529;47.484;19.064;2024-03-02T01:22:12;99810.34;;;11.52;73.63
82006;BME280;71529;47.484;19.064;2024-03-02T01:24:42;99807.25;;;11.39;73.01
82006;BME280;71529;47.484;19.064;2024-03-02T01:27:14;99801.25;;;11.45;72.89
82006;BME280;71529;47.484;19.064;2024-03-02T01:29:43;99792.63;;;11.51;71.92
82006;BME280;71529;47.484;19.064;2024-03-02T01:32:15;99787.81;;;11.55;71.69
82006;BME280;71529;47.484;19.064;2024-03-02T01:34:44;99785.81;;;11.57;72.33
82006;BME280;71529;47.484;19.064;2024-03-02T01:37:13;99776.88;;;11.48;71.09
82006;BME280;71529;47.484;19.064;2024-03-02T01:39:42;99769.06;;;11.55;70.57
82006;BME280;71529;47.484;19.064;2024-03-02T01:42:14;99770.75;;;11.56;70.70
82006;BME280;71529;47.484;19.064;2024-03-02T01:44:43;99771.69;;;11.47;73.26
82006;BME280;71529;47.484;19.064;2024-03-02T01:47:12;99770.31;;;11.43;71.65
82006;BME280;71529;47.484;19.064;2024-03-02T01:49:42;99770.22;;;11.52;71.32
82006;BME280;71529;47.484;19.064;2024-03-02T01:52:11;99775.56;;;11.52;73.53
82006;BME280;71529;47.484;19.064;2024-03-02T01:54:41;99768.38;;;11.53;72.35
82006;BME280;71529;47.484;19.064;2024-03-02T01:57:10;99778.72;;;11.48;70.44
82006;BME280;71529;47.484;19.064;2024-03-02T01:59:42;99780.53;;;11.47;72.21
82006;BME280;71529;47.484;19.064;2024-03-02T02:02:11;99788.03;;;11.44;70.08
82006;BME280;71529;47.484;19.064;2024-03-02T02:04:40;99786.50;;;11.41;69.17
82006;BME280;71529;47.484;19.064;2024-03-02T02:07:10;99780.88;;;11.44;69.61
82006;BME280;71529;47.484;19.064;2024-03-02T02:09:41;99792.00;;;11.40;71.06
82006;BME280;71529;47.484;19.064;2024-03-02T02:12:10;99789.72;;;11.45;71.90
82006;BME280;71529;47.484;19.064;2024-03-02T02:14:46;99797.06;;;11.43;69.99
82006;BME280;71529;47.484;19.064;2024-03-02T02:17:16;99801.19;;;11.37;73.77
82006;BME280;71529;47.484;19.064;2024-03-02T02:19:45;99806.75;;;11.44;73.58
82006;BME280;71529;47.484;19.064;2024-03-02T02:22:16;99806.22;;;11.40;71.09
82006;BME280;71529;47.484;19.064;2024-03-02T02:24:45;99807.78;;;11.43;73.86
82006;BME280;71529;47.484;19.064;2024-03-02T02:27:14;99812.34;;;11.33;70.28
82006;BME280;71529;47.484;19.064;2024-03-02T02:29:44;99809.97;;;11.47;72.79
82006;BME280;71529;47.484;19.064;2024-03-02T02:32:13;99808.31;;;11.46;70.40
82006;BME280;71529;47.484;19.064;2024-03-02T02:34:43;99807.66;;;11.52;70.22
82006;BME280;71529;47.484;19.064;2024-03-02T02:37:12;99816.88;;;11.50;73.75
82006;BME280;71529;47.484;19.064;2024-03-02T02:39:44;99806.53;;;11.55;71.83
82006;BME280;71529;47.484;19.064;2024-03-02T02:42:13;99807.13;;;11.49;72.54
82006;BME280;71529;47.484;19.064;2024-03-02T02:44:42;99809.13;;;11.47;70.69
82006;BME280;71529;47.484;19.064;2024-03-02T02:47:12;99801.03;;;11.56;71.29
82006;BME280;71529;47.484;19.064;2024-03-02T02:49:40;99791.25;;;11.47;70.43
82006;BME280;71529;47.484;19.064;2024-03-02T02:52:09;99796.28;;;11.50;72.83
82006;BME280;71529;47.484;19.064;2024-03-02T02:54:38;99797.97;;;11.51;71.40
82006;BME280;71529;47.484;19.064;2024-03-02T02:57:09;99791.63;;;11.52;70.53
82006;BME280;71529;47.484;19.064;2024-03-02T02:59:38;99792.69;;;11.59;71.54
82006;BME280;71529;47.484;19.064;2024-03-02T03:02:07;99794.28;;;11.52;72.45
82006;BME280;71529;47.484;19.064;2024-03-02T03:04:36;99799.66;;;11.52;69.97
82006;BME280;71529;47.484;19.064;2024-03-02T03:07:05;99801.72;;;11.58;72.25
82006;BME280;71529;47.484;19.064;2024-03-02T03:09:37;99807.75;;;11.60;68.49
82006;BME280;71529;47.484;19.064;2024-03-02T03:12:09;99811.25;;;11.61;69.02
82006;BME280;71529;47.484;19.064;2024-03-02T03:14:40;99819.06;;;11.54;68.29
82006;BME280;71529;47.484;19.064;2024-03-02T03:17:08;99812.84;;;11.54;69.92
82006;BME280;71529;47.484;19.064;2024-03-02T03:19:38;99807.13;;;11.49;68.72
82006;BME280;71529;47.484;19.064;2024-03-02T03:22:07;99806.81;;;11.52;69.54
82006;BME280;71529;47.484;19.064;2024-03-02T03:24:36;99801.72;;;11.58;73.26
82006;BME280;71529;47.484;19.064;2024-03-02T03:27:05;99801.56;;;11.60;69.91
82006;BME280;71529;47.484;19.064;2024-03-02T03:29:36;99806.91;;;11.60;70.89
82006;BME280;71529;47.484;19.064;2024-03-02T03:32:06;99806.59;;;11.63;69.03
82006;BME280;71529;47.484;19.064;2024-03-02T03:34:35;99808.03;;;11.57;70.09
82006;BME280;71529;47.484;19.064;2024-03-02T03:37:05;99807.75;;;11.60;70.58
82006;BME280;71529;47.484;19.064;2024-03-02T03:39:34;99804.38;;;11.58;69.26
82006;BME280;71529;47.484;19.064;2024-03-02T03:42:03;99811.88;;;11.55;70.06
82006;BME280;71529;47.484;19.064;2024-03-02T03:44:33;99809.75;;;11.58;70.48
82006;BME280;71529;47.484;19.064;2024-03-02T03:47:04;99817.22;;;11.55;68.90
82006;BME280;71529;47.484;19.064;2024-03-02T03:49:34;99818.69;;;11.49;69.67
82006;BME280;71529;47.484;19.064;2024-03-02T03:52:03;99825.00;;;11.48;69.59
82006;BME280;71529;47.484;19.064;2024-03-02T03:54:33;99825.53;;;11.52;70.76
82006;BME280;71529;47.484;19.064;2024-03-02T03:57:03;99833.88;;;11.49;71.65
82006;BME280;71529;47.484;19.064;2024-03-02T03:59:32;99826.63;;;11.41;70.65
82006;BME280;71529;47.484;19.064;2024-03-02T04:02:06;99833.44;;;11.36;71.51
82006;BME280;71529;47.484;19.064;2024-03-02T04:04:35;99837.03;;;11.44;72.34
82006;BME280;71529;47.484;19.064;2024-03-02T04:07:04;99828.38;;;11.33;72.94
82006;BME280;71529;47.484;19.064;2024-03-02T04:09:33;99840.63;;;11.35;73.03
82006;BME280;71529;47.484;19.064;2024-03-02T04:12:02;99834.38;;;11.27;73.43
82006;BME280;71529;47.484;19.064;2024-03-02T04:14:32;99838.94;;;11.34;72.74
82006;BME280;71529;47.484;19.064;2024-03-02T04:17:01;99851.22;;;11.27;72.73
82006;BME280;71529;47.484;19.064;2024-03-02T04:19:32;99853.34;;;11.24;72.95
82006;BME280;71529;47.484;19.064;2024-03-02T04:22:01;99853.44;;;11.14;74.89
82006;BME280;71529;47.484;19.064;2024-03-02T04:24:30;99851.91;;;11.11;75.21
82006;BME280;71529;47.484;19.064;2024-03-02T04:26:59;99847.78;;;11.17;77.28
82006;BME280;71529;47.484;19.064;2024-03-02T04:29:28;99847.25;;;11.13;75.48
82006;BME280;71529;47.484;19.064;2024-03-02T04:31:57;99846.94;;;11.16;75.48
82006;BME280;71529;47.484;19.064;2024-03-02T04:34:27;99858.41;;;11.09;76.23
82006;BME280;71529;47.484;19.064;2024-03-02T04:36:58;99847.47;;;11.02;76.44
82006;BME280;71529;47.484;19.064;2024-03-02T04:39:26;99841.69;;;11.07;75.74
82006;BME280;71529;47.484;19.064;2024-03-02T04:41:55;99847.03;;;11.07;76.17
82006;BME280;71529;47.484;19.064;2024-03-02T04:44:25;99845.31;;;11.06;75.57
82006;BME280;71529;47.484;19.064;2024-03-02T04:46:54;99848.16;;;11.04;75.96
82006;BME280;71529;47.484;19.064;2024-03-02T04:49:23;99850.44;;;10.99;76.53
82006;BME280;71529;47.484;19.064;2024-03-02T04:51:52;99855.25;;;10.96;77.56
82006;BME280;71529;47.484;19.064;2024-03-02T04:54:24;99851.28;;;11.00;77.13
82006;BME280;71529;47.484;19.064;2024-03-02T04:56:52;99850.28;;;11.01;76.53
82006;BME280;71529;47.484;19.064;2024-03-02T04:59:22;99854.69;;;10.92;77.10
82006;BME280;71529;47.484;19.064;2024-03-02T05:01:50;99856.53;;;10.92;77.36
82006;BME280;71529;47.484;19.064;2024-03-02T05:04:19;99850.44;;;10.99;77.33
82006;BME280;71529;47.484;19.064;2024-03-02T05:06:48;99846.09;;;10.98;79.35
82006;BME280;71529;47.484;19.064;2024-03-02T05:09:22;99848.63;;;11.00;78.43
82006;BME280;71529;47.484;19.064;2024-03-02T05:11:52;99849.06;;;10.95;77.57
82006;BME280;71529;47.484;19.064;2024-03-02T05:14:36;99850.09;;;10.85;78.01
82006;BME280;71529;47.484;19.064;2024-03-02T05:17:06;99850.09;;;10.85;78.36
82006;BME280;71529;47.484;19.064;2024-03-02T05:19:34;99855.97;;;10.88;77.44
82006;BME280;71529;47.484;19.064;2024-03-02T05:22:04;99856.53;;;10.92;78.44
82006;BME280;71529;47.484;19.064;2024-03-02T05:24:35;99858.66;;;10.88;77.51
82006;BME280;71529;47.484;19.064;2024-03-02T05:27:04;99861.25;;;10.80;79.13
82006;BME280;71529;47.484;19.064;2024-03-02T05:29:33;99854.78;;;10.83;79.85
82006;BME280;71529;47.484;19.064;2024-03-02T05:32:03;99851.56;;;10.79;79.24
82006;BME280;71529;47.484;19.064;2024-03-02T05:34:32;99848.13;;;10.87;79.79
82006;BME280;71529;47.484;19.064;2024-03-02T05:37:01;99852.78;;;10.85;78.62
82006;BME280;71529;47.484;19.064;2024-03-02T05:39:30;99853.63;;;10.85;78.12
82006;BME280;71529;47.484;19.064;2024-03-02T05:42:02;99851.94;;;10.84;80.09
82006;BME280;71529;47.484;19.064;2024-03-02T05:44:31;99852.34;;;10.89;81.13
82006;BME280;71529;47.484;19.064;2024-03-02T05:47:00;99862.19;;;10.89;80.09
82006;BME280;71529;47.484;19.064;2024-03-02T05:49:29;99862.03;;;10.90;79.78
82006;BME280;71529;47.484;19.064;2024-03-02T05:51:58;99870.13;;;10.81;78.56
82006;BME280;71529;47.484;19.064;2024-03-02T05:54:27;99875.53;;;10.89;77.30
82006;BME280;71529;47.484;19.064;2024-03-02T05:56:56;99870.81;;;10.83;76.37
82006;BME280;71529;47.484;19.064;2024-03-02T05:59:44;99884.50;;;10.70;76.88
82006;BME280;71529;47.484;19.064;2024-03-02T06:02:13;99887.03;;;10.72;76.71
82006;BME280;71529;47.484;19.064;2024-03-02T06:04:43;99888.22;;;10.60;77.46
82006;BME280;71529;47.484;19.064;2024-03-02T06:07:11;99891.13;;;10.66;78.70
82006;BME280;71529;47.484;19.064;2024-03-02T06:09:41;99888.59;;;10.65;77.56
82006;BME280;71529;47.484;19.064;2024-03-02T06:12:10;99888.75;;;10.63;77.31
82006;BME280;71529;47.484;19.064;2024-03-02T06:14:39;99899.72;;;10.60;77.40
82006;BME280;71529;47.484;19.064;2024-03-02T06:17:11;99897.75;;;10.62;77.21
82006;BME280;71529;47.484;19.064;2024-03-02T06:19:40;99898.59;;;10.63;78.18
82006;BME280;71529;47.484;19.064;2024-03-02T06:22:09;99889.69;;;10.72;78.72
82006;BME280;71529;47.484;19.064;2024-03-02T06:24:38;99892.13;;;10.65;78.33
82006;BME280;71529;47.484;19.064;2024-03-02T06:27:07;99895.75;;;10.74;80.09
82006;BME280;71529;47.484;19.064;2024-03-02T06:29:35;99892.75;;;10.77;78.79
82006;BME280;71529;47.484;19.064;2024-03-02T06:32:05;99905.13;;;10.78;77.29
82006;BME280;71529;47.484;19.064;2024-03-02T06:34:36;99893.50;;;10.69;77.68
82006;BME280;71529;47.484;19.064;2024-03-02T06:37:05;99895.19;;;10.70;78.39
82006;BME280;71529;47.484;19.064;2024-03-02T06:39:34;99896.78;;;10.63;77.48
82006;BME280;71529;47.484;19.064;2024-03-02T06:42:04;99901.81;;;10.66;78.41
82006;BME280;71529;47.484;19.064;2024-03-02T06:44:32;99895.47;;;10.67;77.31
82006;BME280;71529;47.484;19.064;2024-03-02T06:47:03;99895.91;;;10.72;78.54
82006;BME280;71529;47.484;19.064;2024-03-02T06:49:32;99889.88;;;10.61;78.95
82006;BME280;71529;47.484;19.064;2024-03-02T06:52:03;99905.88;;;10.70;78.53
82006;BME280;71529;47.484;19.064;2024-03-02T06:54:32;99905.22;;;10.59;78.01
82006;BME280;71529;47.484;19.064;2024-03-02T06:57:01;99899.59;;;10.62;78.08
82006;BME280;71529;47.484;19.064;2024-03-02T06:59:30;99901.56;;;10.60;78.16
82006;BME280;71529;47.484;19.064;2024-03-02T07:01:59;99899.59;;;10.62;79.16
82006;BME280;71529;47.484;19.064;2024-03-02T07:04:28;99896.38;;;10.58;79.87
82006;BME280;71529;47.484;19.064;2024-03-02T07:06:57;99907.88;;;10.59;78.13
82006;BME280;71529;47.484;19.064;2024-03-02T07:09:28;99904.09;;;10.52;78.98
82006;BME280;71529;47.484;19.064;2024-03-02T07:11:57;99903.13;;;10.53;78.33
82006;BME280;71529;47.484;19.064;2024-03-02T07:14:26;99900.31;;;10.54;78.24
82006;BME280;71529;47.484;19.064;2024-03-02T07:17:15;99905.97;;;10.51;78.60
82006;BME280;71529;47.484;19.064;2024-03-02T07:19:44;99912.56;;;10.47;78.76
82006;BME280;71529;47.484;19.064;2024-03-02T07:22:13;99909.34;;;10.44;79.32
82006;BME280;71529;47.484;19.064;2024-03-02T07:24:45;99909.19;;;10.45;79.33
82006;BME280;71529;47.484;19.064;2024-03-02T07:27:15;99911.31;;;10.51;79.12
82006;BME280;71529;47.484;19.064;2024-03-02T07:29:45;99913.81;;;10.53;78.68
82006;BME280;71529;47.484;19.064;2024-03-02T07:32:14;99912.25;;;10.60;78.52
82006;BME280;71529;47.484;19.064;2024-03-02T07:34:43;99916.50;;;10.53;78.55
82006;BME280;71529;47.484;19.064;2024-03-02T07:37:12;99915.91;;;10.59;78.32
82006;BME280;71529;47.484;19.064;2024-03-02T07:39:41;99917.28;;;10.63;79.63
82006;BME280;71529;47.484;19.064;2024-03-02T07:42:13;99923.19;;;10.66;80.04
82006;BME280;71529;47.484;19.064;2024-03-02T07:44:44;99923.59;;;10.71;79.32
82006;BME280;71529;47.484;19.064;2024-03-02T07:47:12;99923.19;;;10.66;78.87
82006;BME280;71529;47.484;19.064;2024-03-02T07:49:41;99931.34;;;10.65;80.11
82006;BME280;71529;47.484;19.064;2024-03-02T07:52:10;99928.13;;;10.61;78.99
82006;BME280;71529;47.484;19.064;2024-03-02T07:54:39;99932.31;;;10.64;78.97
82006;BME280;71529;47.484;19.064;2024-03-02T07:57:08;99932.31;;;10.64;79.22
82006;BME280;71529;47.484;19.064;2024-03-02T07:59:40;99934.03;;;10.65;81.52
82006;BME280;71529;47.484;19.064;2024-03-02T08:02:08;99934.88;;;10.65;80.24
82006;BME280;71529;47.484;19.064;2024-03-02T08:04:38;99931.75;;;10.70;83.00
82006;BME280;71529;47.484;19.064;2024-03-02T08:07:07;99935.97;;;10.72;81.14
82006;BME280;71529;47.484;19.064;2024-03-02T08:09:36;99934.41;;;10.70;79.91
82006;BME280;71529;47.484;19.064;2024-03-02T08:12:05;99941.44;;;10.71;80.79
82006;BME280;71529;47.484;19.064;2024-03-02T08:14:34;99944.38;;;10.77;80.48
82006;BME280;71529;47.484;19.064;2024-03-02T08:17:06;99945.66;;;10.73;81.79
82006;BME280;71529;47.484;19.064;2024-03-02T08:19:37;99941.72;;;10.77;80.02
82006;BME280;71529;47.484;19.064;2024-03-02T08:22:07;99948.78;;;10.69;80.13
82006;BME280;71529;47.484;19.064;2024-03-02T08:24:35;99941.97;;;10.74;80.87
82006;BME280;71529;47.484;19.064;2024-03-02T08:27:04;99940.00;;;10.76;80.70
82006;BME280;71529;47.484;19.064;2024-03-02T08:29:33;99939.19;;;10.76;81.70
82006;BME280;71529;47.484;19.064;2024-03-02T08:32:06;99939.59;;;10.71;80.88
82006;BME280;71529;47.484;19.064;2024-03-02T08:34:35;99938.66;;;10.63;80.80
82006;BME280;71529;47.484;19.064;2024-03-02T08:37:04;99944.41;;;10.68;81.22
82006;BME280;71529;47.484;19.064;2024-03-02T08:39:33;99944.25;;;10.69;81.10
82006;BME280;71529;47.484;19.064;2024-03-02T08:42:02;99940.88;;;10.67;81.24
82006;BME280;71529;47.484;19.064;2024-03-02T08:44:34;99943.53;;;10.77;81.60
82006;BME280;71529;47.484;19.064;2024-03-02T08:47:06;99949.19;;;10.74;81.49
82006;BME280;71529;47.484;19.064;2024-03-02T08:49:35;99939.38;;;10.65;82.23
82006;BME280;71529;47.484;19.064;2024-03-02T08:52:04;99940.00;;;10.76;82.54
82006;BME280;71529;47.484;19.064;2024-03-02T08:54:33;99946.75;;;10.80;82.56
82006;BME280;71529;47.484;19.064;2024-03-02T08:57:07;99952.25;;;10.79;81.29
82006;BME280;71529;47.484;19.064;2024-03-02T08:59:42;99938.91;;;10.69;81.31
82006;BME280;71529;47.484;19.064;2024-03-02T09:02:13;99949.50;;;10.61;81.19
82006;BME280;71529;47.484;19.064;2024-03-02T09:04:42;99939.06;;;10.68;82.39
82006;BME280;71529;47.484;19.064;2024-03-02T09:07:11;99934.28;;;10.71;82.41
82006;BME280;71529;47.484;19.064;2024-03-02T09:09:40;99948.63;;;10.70;81.33
82006;BME280;71529;47.484;19.064;2024-03-02T09:12:09;99943.97;;;10.72;81.74
82006;BME280;71529;47.484;19.064;2024-03-02T09:14:39;99942.81;;;10.84;82.12
82006;BME280;71529;47.484;19.064;2024-03-02T09:17:09;99944.38;;;10.77;81.78
82006;BME280;71529;47.484;19.064;2024-03-02T09:19:42;99942.25;;;10.81;81.32
82006;BME280;71529;47.484;19.064;2024-03-02T09:22:11;99944.66;;;10.74;80.79
82006;BME280;71529;47.484;19.064;2024-03-02T09:24:40;99946.34;;;10.75;82.45
82006;BME280;71529;47.484;19.064;2024-03-02T09:27:09;99943.28;;;10.70;80.87
82006;BME280;71529;47.484;19.064;2024-03-02T09:29:38;99951.31;;;10.70;80.89
82006;BME280;71529;47.484;19.064;2024-03-02T09:32:07;99946.59;;;10.82;83.22
82006;BME280;71529;47.484;19.064;2024-03-02T09:34:37;99953.34;;;10.86;82.45
82006;BME280;71529;47.484;19.064;2024-03-02T09:37:08;99951.91;;;10.91;81.97
82006;BME280;71529;47.484;19.064;2024-03-02T09:39:37;99953.03;;;10.89;81.51
82006;BME280;71529;47.484;19.064;2024-03-02T09:42:06;99950.06;;;10.92;82.60
82006;BME280;71529;47.484;19.064;2024-03-02T09:44:35;99955.00;;;10.96;82.19
82006;BME280;71529;47.484;19.064;2024-03-02T09:47:06;99944.22;;;11.06;82.30
82006;BME280;71529;47.484;19.064;2024-03-02T09:49:35;99947.91;;;11.05;82.65
82006;BME280;71529;47.484;19.064;2024-03-02T09:52:05;99950.81;;;11.11;80.48
82006;BME280;71529;47.484;19.064;2024-03-02T09:54:36;99948.16;;;11.11;80.98
82006;BME280;71529;47.484;19.064;2024-03-02T09:57:06;99942.72;;;11.03;80.99
82006;BME280;71529;47.484;19.064;2024-03-02T09:59:35;99944.38;;;11.04;81.21
82006;BME280;71529;47.484;19.064;2024-03-02T10:02:04;99951.69;;;11.02;81.71
82006;BME280;71529;47.484;19.064;2024-03-02T10:04:33;99948.63;;;10.97;80.46
82006;BME280;71529;47.484;19.064;2024-03-02T10:07:12;99953.56;;;11.02;81.74
82006;BME280;71529;47.484;19.064;2024-03-02T10:09:45;99949.94;;;10.93;81.49
82006;BME280;71529;47.484;19.064;2024-03-02T10:12:15;99949.78;;;10.95;80.86
82006;BME280;71529;47.484;19.064;2024-03-02T10:14:45;99950.63;;;10.95;80.56
82006;BME280;71529;47.484;19.064;2024-03-02T10:17:14;99950.72;;;11.03;81.34
82006;BME280;71529;47.484;19.064;2024-03-02T10:19:46;99947.34;;;11.01;81.92
82006;BME280;71529;47.484;19.064;2024-03-02T10:22:15;99943.84;;;11.01;82.08
82006;BME280;71529;47.484;19.064;2024-03-02T10:24:46;99944.69;;;11.01;80.93
82006;BME280;71529;47.484;19.064;2024-03-02T10:27:18;99949.19;;;11.01;80.66
82006;BME280;71529;47.484;19.064;2024-03-02T10:29:47;99949.34;;;10.99;80.64
82006;BME280;71529;47.484;19.064;2024-03-02T10:32:16;99941.16;;;11.01;80.80
82006;BME280;71529;47.484;19.064;2024-03-02T10:34:46;99947.06;;;11.04;81.92
82006;BME280;71529;47.484;19.064;2024-03-02T10:37:16;99946.47;;;11.10;81.63
82006;BME280;71529;47.484;19.064;2024-03-02T10:39:48;99946.63;;;11.09;81.24
82006;BME280;71529;47.484;19.064;2024-03-02T10:42:18;99937.66;;;11.00;80.38
82006;BME280;71529;47.484;19.064;2024-03-02T10:44:48;99940.22;;;10.92;82.41
82006;BME280;71529;47.484;19.064;2024-03-02T10:47:19;99938.72;;;10.90;80.73
82006;BME280;71529;47.484;19.064;2024-03-02T10:49:51;99939.25;;;10.93;81.09
82006;BME280;71529;47.484;19.064;2024-03-02T10:52:20;99937.25;;;10.95;81.41
82006;BME280;71529;47.484;19.064;2024-03-02T10:54:53;99945.25;;;10.95;81.90
82006;BME280;71529;47.484;19.064;2024-03-02T10:57:24;99937.25;;;10.95;81.07
82006;BME280;71529;47.484;19.064;2024-03-02T10:59:56;99937.94;;;10.97;81.80
82006;BME280;71529;47.484;19.064;2024-03-02T11:02:29;99939.03;;;11.04;82.23
82006;BME280;71529;47.484;19.064;2024-03-02T11:05:00;99932.94;;;11.12;80.84
82006;BME280;71529;47.484;19.064;2024-03-02T11:07:35;99929.66;;;11.00;81.80
82006;BME280;71529;47.484;19.064;2024-03-02T11:10:09;99934.44;;;10.97;81.03
82006;BME280;71529;47.484;19.064;2024-03-02T11:12:39;99925.19;;;10.91;81.82
82006;BME280;71529;47.484;19.064;2024-03-02T11:15:17;99924.69;;;11.05;82.22
82006;BME280;71529;47.484;19.064;2024-03-02T11:17:46;99919.34;;;11.05;81.87
82006;BME280;71529;47.484;19.064;2024-03-02T11:20:16;99924.31;;;11.00;81.97
82006;BME280;71529;47.484;19.064;2024-03-02T11:22:46;99918.03;;;11.09;81.23
82006;BME280;71529;47.484;19.064;2024-03-02T11:25:27;99917.22;;;11.09;81.17
82006;BME280;71529;47.484;19.064;2024-03-02T11:28:04;99921.13;;;11.14;81.84
82006;BME280;71529;47.484;19.064;2024-03-02T11:30:51;99913.53;;;11.10;81.05
82006;BME280;71529;47.484;19.064;2024-03-02T11:33:26;99925.09;;;11.10;81.42
82006;BME280;71529;47.484;19.064;2024-03-02T11:35:58;99912.41;;;11.12;81.77
82006;BME280;71529;47.484;19.064;2024-03-02T11:38:31;99920.72;;;11.09;81.87
82006;BME280;71529;47.484;19.064;2024-03-02T11:41:06;99913.78;;;11.16;82.83
82006;BME280;71529;47.484;19.064;2024-03-02T11:43:37;99913.25;;;11.13;82.62
82006;BME280;71529;47.484;19.064;2024-03-02T11:46:08;99910.44;;;11.14;81.39
82006;BME280;71529;47.484;19.064;2024-03-02T11:48:39;99911.81;;;11.18;81.41
82006;BME280;71529;47.484;19.064;2024-03-02T11:51:08;99905.47;;;11.20;81.74
82006;BME280;71529;47.484;19.064;2024-03-02T11:53:39;99912.81;;;11.18;81.58
82006;BME280;71529;47.484;19.064;2024-03-02T11:56:12;99914.31;;;11.20;81.51
82006;BME280;71529;47.484;19.064;2024-03-02T11:58:42;99912.34;;;11.22;81.01
82006;BME280;71529;47.484;19.064;2024-03-02T12:01:11;99909.38;;;11.25;81.78
82006;BME280;71529;47.484;19.064;2024-03-02T12:03:41;99911.94;;;11.17;82.18
82006;BME280;71529;47.484;19.064;2024-03-02T12:06:11;99905.88;;;11.25;81.09
82006;BME280;71529;47.484;19.064;2024-03-02T12:08:40;99910.91;;;11.28;81.20
82006;BME280;71529;47.484;19.064;2024-03-02T12:11:14;99906.91;;;11.14;81.70
82006;BME280;71529;47.484;19.064;2024-03-02T12:13:51;99903.78;;;11.18;82.75
82006;BME280;71529;47.484;19.064;2024-03-02T12:16:23;99903.34;;;11.23;81.58
82006;BME280;71529;47.484;19.064;2024-03-02T12:18:52;99911.09;;;11.16;81.39
82006;BME280;71529;47.484;19.064;2024-03-02T12:21:21;99916.75;;;11.13;80.61
82006;BME280;71529;47.484;19.064;2024-03-02T12:23:50;99909.44;;;11.15;81.42
82006;BME280;71529;47.484;19.064;2024-03-02T12:26:22;99916.19;;;11.20;81.63
82006;BME280;71529;47.484;19.064;2024-03-02T12:28:51;99910.03;;;11.09;80.64
82006;BME280;71529;47.484;19.064;2024-03-02T12:31:21;99912.41;;;11.12;79.76
82006;BME280;71529;47.484;19.064;2024-03-02T12:33:50;99914.94;;;11.14;80.30
82006;BME280;71529;47.484;19.064;2024-03-02T12:36:19;99913.19;;;11.23;79.70
82006;BME280;71529;47.484;19.064;2024-03-02T12:38:48;99912.97;;;11.16;80.60
82006;BME280;71529;47.484;19.064;2024-03-02T12:41:17;99908.75;;;11.13;79.87
82006;BME280;71529;47.484;19.064;2024-03-02T12:43:49;99908.44;;;11.16;79.71
82006;BME280;71529;47.484;19.064;2024-03-02T12:46:18;99910.56;;;11.13;80.20
82006;BME280;71529;47.484;19.064;2024-03-02T12:48:47;99910.13;;;11.18;80.78
82006;BME280;71529;47.484;19.064;2024-03-02T12:51:16;99915.78;;;11.14;79.87
82006;BME280;71529;47.484;19.064;2024-03-02T12:53:45;99911.94;;;11.17;80.34
82006;BME280;71529;47.484;19.064;2024-03-02T12:56:14;99909.75;;;11.12;80.43
82006;BME280;71529;47.484;19.064;2024-03-02T12:58:44;99916.91;;;11.12;80.70
82006;BME280;71529;47.484;19.064;2024-03-02T13:01:15;99916.72;;;11.23;81.10
82006;BME280;71529;47.484;19.064;2024-03-02T13:03:44;99909.75;;;11.12;80.43
82006;BME280;71529;47.484;19.064;2024-03-02T13:06:14;99905.75;;;11.16;81.49